sensor_id;sensor_type;location;lat;lon;timestamp;P1;durP1;ratioP1;P2;durP2;ratioP2
68140;SDS011;54941;52.220;104.306;2023-07-24T00:00:47;6.72;;;2.83;;
68140;SDS011;54941;52.220;104.306;2023-07-24T00:03:13;5.95;;;2.70;;
68140;SDS011;54941;52.220;104.306;2023-07-24T00:05:41;6.13;;;3.08;;
68140;SDS011;54941;52.220;104.306;2023-07-24T00:08:08;8.43;;;3.30;;
68140;SDS011;54941;52.220;104.306;2023-07-24T00:10:35;5.55;;;2.45;;
68140;SDS011;54941;52.220;104.306;2023-07-24T00:13:01;5.32;;;2.60;;
68140;SDS011;54941;52.220;104.306;2023-07-24T00:15:28;6.68;;;2.72;;
68140;SDS011;54941;52.220;104.306;2023-07-24T00:17:54;7.20;;;3.20;;
68140;SDS011;54941;52.220;104.306;2023-07-24T00:20:20;6.80;;;2.67;;
68140;SDS011;54941;52.220;104.306;2023-07-24T00:22:48;6.15;;;2.72;;
68140;SDS011;54941;52.220;104.306;2023-07-24T00:25:15;5.80;;;2.45;;
68140;SDS011;54941;52.220;104.306;2023-07-24T00:27:41;6.22;;;2.90;;
68140;SDS011;54941;52.220;104.306;2023-07-24T00:30:08;7.03;;;2.95;;
68140;SDS011;54941;52.220;104.306;2023-07-24T00:32:34;7.10;;;2.83;;
68140;SDS011;54941;52.220;104.306;2023-07-24T00:35:01;9.93;;;3.45;;
68140;SDS011;54941;52.220;104.306;2023-07-24T00:37:30;9.05;;;3.17;;
68140;SDS011;54941;52.220;104.306;2023-07-24T00:39:58;8.52;;;3.25;;
68140;SDS011;54941;52.220;104.306;2023-07-24T00:42:24;7.10;;;3.00;;
68140;SDS011;54941;52.220;104.306;2023-07-24T00:44:51;8.20;;;3.42;;
68140;SDS011;54941;52.220;104.306;2023-07-24T00:47:17;9.82;;;3.40;;
68140;SDS011;54941;52.220;104.306;2023-07-24T00:49:43;9.10;;;3.20;;
68140;SDS011;54941;52.220;104.306;2023-07-24T00:52:10;8.73;;;3.08;;
68140;SDS011;54941;52.220;104.306;2023-07-24T00:54:37;8.18;;;3.00;;
68140;SDS011;54941;52.220;104.306;2023-07-24T00:57:06;9.52;;;3.63;;
68140;SDS011;54941;52.220;104.306;2023-07-24T00:59:33;8.10;;;3.20;;
68140;SDS011;54941;52.220;104.306;2023-07-24T01:01:59;9.50;;;3.15;;
68140;SDS011;54941;52.220;104.306;2023-07-24T01:04:26;12.02;;;3.50;;
68140;SDS011;54941;52.220;104.306;2023-07-24T01:06:53;9.85;;;3.80;;
68140;SDS011;54941;52.220;104.306;2023-07-24T01:09:20;9.35;;;3.58;;
68140;SDS011;54941;52.220;104.306;2023-07-24T01:11:46;12.43;;;4.07;;
68140;SDS011;54941;52.220;104.306;2023-07-24T01:14:19;13.75;;;3.80;;
68140;SDS011;54941;52.220;104.306;2023-07-24T01:16:48;14.07;;;4.00;;
68140;SDS011;54941;52.220;104.306;2023-07-24T01:19:20;15.93;;;4.10;;
68140;SDS011;54941;52.220;104.306;2023-07-24T01:21:59;12.20;;;3.92;;
68140;SDS011;54941;52.220;104.306;2023-07-24T01:24:36;11.57;;;3.55;;
68140;SDS011;54941;52.220;104.306;2023-07-24T01:27:20;13.73;;;3.53;;
68140;SDS011;54941;52.220;104.306;2023-07-24T01:29:48;7.03;;;3.08;;
68140;SDS011;54941;52.220;104.306;2023-07-24T01:32:15;6.72;;;2.92;;
68140;SDS011;54941;52.220;104.306;2023-07-24T01:34:41;5.78;;;2.90;;
68140;SDS011;54941;52.220;104.306;2023-07-24T01:37:07;5.22;;;2.50;;
68140;SDS011;54941;52.220;104.306;2023-07-24T01:39:37;10.80;;;3.28;;
68140;SDS011;54941;52.220;104.306;2023-07-24T01:42:05;6.38;;;2.42;;
68140;SDS011;54941;52.220;104.306;2023-07-24T01:44:34;4.10;;;2.22;;
68140;SDS011;54941;52.220;104.306;2023-07-24T01:47:00;4.88;;;2.50;;
68140;SDS011;54941;52.220;104.306;2023-07-24T01:49:27;5.45;;;2.20;;
68140;SDS011;54941;52.220;104.306;2023-07-24T01:51:53;4.15;;;2.50;;
68140;SDS011;54941;52.220;104.306;2023-07-24T01:54:19;5.53;;;2.85;;
68140;SDS011;54941;52.220;104.306;2023-07-24T01:56:46;4.93;;;2.38;;
68140;SDS011;54941;52.220;104.306;2023-07-24T01:59:12;4.70;;;2.30;;
68140;SDS011;54941;52.220;104.306;2023-07-24T02:01:40;3.10;;;1.98;;
68140;SDS011;54941;52.220;104.306;2023-07-24T02:04:06;3.53;;;2.80;;
68140;SDS011;54941;52.220;104.306;2023-07-24T02:06:32;4.20;;;2.42;;
68140;SDS011;54941;52.220;104.306;2023-07-24T02:08:59;5.47;;;2.80;;
68140;SDS011;54941;52.220;104.306;2023-07-24T02:11:25;4.80;;;2.70;;
68140;SDS011;54941;52.220;104.306;2023-07-24T02:13:52;4.72;;;3.03;;
68140;SDS011;54941;52.220;104.306;2023-07-24T02:16:19;4.15;;;2.28;;
68140;SDS011;54941;52.220;104.306;2023-07-24T02:18:47;4.38;;;2.53;;
68140;SDS011;54941;52.220;104.306;2023-07-24T02:21:14;4.32;;;2.50;;
68140;SDS011;54941;52.220;104.306;2023-07-24T02:23:40;4.13;;;2.33;;
68140;SDS011;54941;52.220;104.306;2023-07-24T02:26:06;4.18;;;2.33;;
68140;SDS011;54941;52.220;104.306;2023-07-24T02:28:33;3.58;;;2.60;;
68140;SDS011;54941;52.220;104.306;2023-07-24T02:30:59;3.95;;;2.58;;
68140;SDS011;54941;52.220;104.306;2023-07-24T02:33:26;4.72;;;2.35;;
68140;SDS011;54941;52.220;104.306;2023-07-24T02:35:54;4.30;;;2.65;;
68140;SDS011;54941;52.220;104.306;2023-07-24T02:38:20;4.78;;;2.80;;
68140;SDS011;54941;52.220;104.306;2023-07-24T02:40:46;3.95;;;2.53;;
68140;SDS011;54941;52.220;104.306;2023-07-24T02:43:13;3.63;;;2.60;;
68140;SDS011;54941;52.220;104.306;2023-07-24T02:45:39;5.75;;;2.58;;
68140;SDS011;54941;52.220;104.306;2023-07-24T02:48:06;4.05;;;2.78;;
68140;SDS011;54941;52.220;104.306;2023-07-24T02:50:32;5.15;;;2.40;;
68140;SDS011;54941;52.220;104.306;2023-07-24T02:53:00;5.80;;;2.55;;
68140;SDS011;54941;52.220;104.306;2023-07-24T02:55:27;4.07;;;2.60;;
68140;SDS011;54941;52.220;104.306;2023-07-24T02:57:53;4.80;;;2.97;;
68140;SDS011;54941;52.220;104.306;2023-07-24T03:00:20;4.47;;;2.75;;
68140;SDS011;54941;52.220;104.306;2023-07-24T03:02:46;4.25;;;2.47;;
68140;SDS011;54941;52.220;104.306;2023-07-24T03:05:13;3.40;;;2.63;;
68140;SDS011;54941;52.220;104.306;2023-07-24T03:07:39;4.28;;;2.63;;
68140;SDS011;54941;52.220;104.306;2023-07-24T03:10:07;6.70;;;3.25;;
68140;SDS011;54941;52.220;104.306;2023-07-24T03:12:34;7.18;;;3.08;;
68140;SDS011;54941;52.220;104.306;2023-07-24T03:15:01;8.13;;;2.85;;
68140;SDS011;54941;52.220;104.306;2023-07-24T03:17:30;8.27;;;2.92;;
68140;SDS011;54941;52.220;104.306;2023-07-24T03:19:56;9.63;;;3.25;;
68140;SDS011;54941;52.220;104.306;2023-07-24T03:22:22;12.05;;;4.65;;
68140;SDS011;54941;52.220;104.306;2023-07-24T03:24:49;11.60;;;3.65;;
68140;SDS011;54941;52.220;104.306;2023-07-24T03:27:16;9.75;;;4.25;;
68140;SDS011;54941;52.220;104.306;2023-07-24T03:29:43;8.45;;;3.22;;
68140;SDS011;54941;52.220;104.306;2023-07-24T03:32:09;9.90;;;3.45;;
68140;SDS011;54941;52.220;104.306;2023-07-24T03:34:35;5.93;;;4.07;;
68140;SDS011;54941;52.220;104.306;2023-07-24T03:37:02;7.05;;;4.22;;
68140;SDS011;54941;52.220;104.306;2023-07-24T03:39:28;5.88;;;4.70;;
68140;SDS011;54941;52.220;104.306;2023-07-24T03:41:55;6.13;;;4.03;;
68140;SDS011;54941;52.220;104.306;2023-07-24T03:44:22;6.88;;;3.72;;
68140;SDS011;54941;52.220;104.306;2023-07-24T03:46:49;7.68;;;4.00;;
68140;SDS011;54941;52.220;104.306;2023-07-24T03:49:15;7.85;;;4.68;;
68140;SDS011;54941;52.220;104.306;2023-07-24T03:51:42;6.68;;;4.03;;
68140;SDS011;54941;52.220;104.306;2023-07-24T03:54:08;5.90;;;4.07;;
68140;SDS011;54941;52.220;104.306;2023-07-24T03:56:34;5.47;;;3.90;;
68140;SDS011;54941;52.220;104.306;2023-07-24T03:59:01;6.00;;;3.47;;
68140;SDS011;54941;52.220;104.306;2023-07-24T04:01:28;4.93;;;3.50;;
68140;SDS011;54941;52.220;104.306;2023-07-24T04:03:55;5.85;;;3.53;;
68140;SDS011;54941;52.220;104.306;2023-07-24T04:06:21;6.55;;;3.42;;
68140;SDS011;54941;52.220;104.306;2023-07-24T04:08:47;7.07;;;4.75;;
68140;SDS011;54941;52.220;104.306;2023-07-24T04:11:14;6.00;;;3.63;;
68140;SDS011;54941;52.220;104.306;2023-07-24T04:13:40;6.45;;;4.07;;
68140;SDS011;54941;52.220;104.306;2023-07-24T04:18:36;7.05;;;4.10;;
68140;SDS011;54941;52.220;104.306;2023-07-24T04:21:03;6.70;;;4.15;;
68140;SDS011;54941;52.220;104.306;2023-07-24T04:23:29;7.75;;;4.65;;
68140;SDS011;54941;52.220;104.306;2023-07-24T04:25:55;8.02;;;4.68;;
68140;SDS011;54941;52.220;104.306;2023-07-24T04:28:22;6.03;;;3.95;;
68140;SDS011;54941;52.220;104.306;2023-07-24T04:30:48;6.53;;;4.63;;
68140;SDS011;54941;52.220;104.306;2023-07-24T04:33:14;6.53;;;4.18;;
68140;SDS011;54941;52.220;104.306;2023-07-24T04:35:42;6.63;;;4.38;;
68140;SDS011;54941;52.220;104.306;2023-07-24T04:38:09;5.75;;;4.65;;
68140;SDS011;54941;52.220;104.306;2023-07-24T04:40:35;7.35;;;4.40;;
68140;SDS011;54941;52.220;104.306;2023-07-24T04:43:02;6.57;;;4.22;;
68140;SDS011;54941;52.220;104.306;2023-07-24T04:45:28;7.60;;;4.57;;
68140;SDS011;54941;52.220;104.306;2023-07-24T04:47:54;7.90;;;5.15;;
68140;SDS011;54941;52.220;104.306;2023-07-24T04:50:21;7.82;;;5.18;;
68140;SDS011;54941;52.220;104.306;2023-07-24T04:52:49;9.75;;;5.82;;
68140;SDS011;54941;52.220;104.306;2023-07-24T04:55:15;8.57;;;5.85;;
68140;SDS011;54941;52.220;104.306;2023-07-24T04:57:41;6.05;;;5.15;;
68140;SDS011;54941;52.220;104.306;2023-07-24T05:00:08;10.48;;;5.65;;
68140;SDS011;54941;52.220;104.306;2023-07-24T05:02:36;7.15;;;5.25;;
68140;SDS011;54941;52.220;104.306;2023-07-24T05:05:02;7.30;;;5.10;;
68140;SDS011;54941;52.220;104.306;2023-07-24T05:07:29;6.20;;;4.75;;
68140;SDS011;54941;52.220;104.306;2023-07-24T05:09:58;8.43;;;4.65;;
68140;SDS011;54941;52.220;104.306;2023-07-24T05:12:24;6.57;;;4.45;;
68140;SDS011;54941;52.220;104.306;2023-07-24T05:14:51;6.70;;;4.45;;
68140;SDS011;54941;52.220;104.306;2023-07-24T05:17:17;7.30;;;4.38;;
68140;SDS011;54941;52.220;104.306;2023-07-24T05:19:43;6.55;;;4.65;;
68140;SDS011;54941;52.220;104.306;2023-07-24T05:22:10;7.10;;;4.57;;
68140;SDS011;54941;52.220;104.306;2023-07-24T05:24:36;6.13;;;4.75;;
68140;SDS011;54941;52.220;104.306;2023-07-24T05:27:04;7.95;;;5.07;;
68140;SDS011;54941;52.220;104.306;2023-07-24T05:29:31;8.32;;;5.45;;
68140;SDS011;54941;52.220;104.306;2023-07-24T05:31:58;8.95;;;5.85;;
68140;SDS011;54941;52.220;104.306;2023-07-24T05:34:25;9.18;;;5.95;;
68140;SDS011;54941;52.220;104.306;2023-07-24T05:36:52;9.68;;;6.78;;
68140;SDS011;54941;52.220;104.306;2023-07-24T05:39:18;7.72;;;5.97;;
68140;SDS011;54941;52.220;104.306;2023-07-24T05:41:44;10.27;;;6.45;;
68140;SDS011;54941;52.220;104.306;2023-07-24T05:44:13;8.52;;;5.88;;
68140;SDS011;54941;52.220;104.306;2023-07-24T05:46:40;10.98;;;6.07;;
68140;SDS011;54941;52.220;104.306;2023-07-24T05:49:06;8.98;;;5.65;;
68140;SDS011;54941;52.220;104.306;2023-07-24T05:51:33;11.57;;;5.97;;
68140;SDS011;54941;52.220;104.306;2023-07-24T05:53:59;7.40;;;5.15;;
68140;SDS011;54941;52.220;104.306;2023-07-24T05:56:25;8.73;;;5.57;;
68140;SDS011;54941;52.220;104.306;2023-07-24T05:58:52;8.27;;;4.97;;
68140;SDS011;54941;52.220;104.306;2023-07-24T06:01:20;7.68;;;5.15;;
68140;SDS011;54941;52.220;104.306;2023-07-24T06:03:46;6.90;;;5.20;;
68140;SDS011;54941;52.220;104.306;2023-07-24T06:06:12;9.35;;;5.93;;
68140;SDS011;54941;52.220;104.306;2023-07-24T06:08:39;8.73;;;5.47;;
68140;SDS011;54941;52.220;104.306;2023-07-24T06:11:06;7.05;;;5.05;;
68140;SDS011;54941;52.220;104.306;2023-07-24T06:13:32;6.00;;;5.40;;
68140;SDS011;54941;52.220;104.306;2023-07-24T06:15:59;9.45;;;5.18;;
68140;SDS011;54941;52.220;104.306;2023-07-24T06:18:27;7.72;;;5.13;;
68140;SDS011;54941;52.220;104.306;2023-07-24T06:20:53;7.32;;;5.50;;
68140;SDS011;54941;52.220;104.306;2023-07-24T06:23:20;6.13;;;5.03;;
68140;SDS011;54941;52.220;104.306;2023-07-24T06:25:46;6.97;;;5.20;;
68140;SDS011;54941;52.220;104.306;2023-07-24T06:28:13;7.57;;;5.28;;
68140;SDS011;54941;52.220;104.306;2023-07-24T06:30:39;6.05;;;4.75;;
68140;SDS011;54941;52.220;104.306;2023-07-24T06:33:05;7.88;;;5.30;;
68140;SDS011;54941;52.220;104.306;2023-07-24T06:35:33;6.13;;;5.45;;
68140;SDS011;54941;52.220;104.306;2023-07-24T06:38:00;7.80;;;5.95;;
68140;SDS011;54941;52.220;104.306;2023-07-24T06:40:27;7.97;;;5.40;;
68140;SDS011;54941;52.220;104.306;2023-07-24T06:42:53;6.75;;;4.90;;
68140;SDS011;54941;52.220;104.306;2023-07-24T06:45:20;8.20;;;5.07;;
68140;SDS011;54941;52.220;104.306;2023-07-24T06:47:46;6.68;;;4.90;;
68140;SDS011;54941;52.220;104.306;2023-07-24T06:50:12;6.57;;;4.88;;
68140;SDS011;54941;52.220;104.306;2023-07-24T06:52:40;8.43;;;4.88;;
68140;SDS011;54941;52.220;104.306;2023-07-24T06:55:07;6.40;;;5.55;;
68140;SDS011;54941;52.220;104.306;2023-07-24T06:57:34;6.68;;;5.28;;
68140;SDS011;54941;52.220;104.306;2023-07-24T07:00:00;6.55;;;5.28;;
68140;SDS011;54941;52.220;104.306;2023-07-24T07:02:27;9.13;;;5.18;;
68140;SDS011;54941;52.220;104.306;2023-07-24T07:04:53;8.25;;;5.35;;
68140;SDS011;54941;52.220;104.306;2023-07-24T07:07:19;7.15;;;4.90;;
68140;SDS011;54941;52.220;104.306;2023-07-24T07:09:47;6.32;;;5.15;;
68140;SDS011;54941;52.220;104.306;2023-07-24T07:12:13;6.53;;;4.60;;
68140;SDS011;54941;52.220;104.306;2023-07-24T07:14:40;6.90;;;4.90;;
68140;SDS011;54941;52.220;104.306;2023-07-24T07:17:06;6.28;;;4.35;;
68140;SDS011;54941;52.220;104.306;2023-07-24T07:19:32;7.28;;;4.53;;
68140;SDS011;54941;52.220;104.306;2023-07-24T07:21:59;7.93;;;4.88;;
68140;SDS011;54941;52.220;104.306;2023-07-24T07:24:28;6.38;;;4.00;;
68140;SDS011;54941;52.220;104.306;2023-07-24T07:26:56;6.65;;;3.70;;
68140;SDS011;54941;52.220;104.306;2023-07-24T07:29:22;6.50;;;3.92;;
68140;SDS011;54941;52.220;104.306;2023-07-24T07:31:49;5.38;;;3.63;;
68140;SDS011;54941;52.220;104.306;2023-07-24T07:34:15;5.40;;;2.97;;
68140;SDS011;54941;52.220;104.306;2023-07-24T07:36:42;7.35;;;3.35;;
68140;SDS011;54941;52.220;104.306;2023-07-24T07:39:08;5.40;;;3.15;;
68140;SDS011;54941;52.220;104.306;2023-07-24T07:41:34;7.13;;;3.45;;
68140;SDS011;54941;52.220;104.306;2023-07-24T07:44:02;6.63;;;3.45;;
68140;SDS011;54941;52.220;104.306;2023-07-24T07:46:29;5.13;;;3.08;;
68140;SDS011;54941;52.220;104.306;2023-07-24T07:48:55;7.22;;;3.92;;
68140;SDS011;54941;52.220;104.306;2023-07-24T07:51:21;5.05;;;3.28;;
68140;SDS011;54941;52.220;104.306;2023-07-24T07:53:47;4.80;;;3.15;;
68140;SDS011;54941;52.220;104.306;2023-07-24T07:56:14;8.68;;;3.50;;
68140;SDS011;54941;52.220;104.306;2023-07-24T07:58:40;5.20;;;3.05;;
68140;SDS011;54941;52.220;104.306;2023-07-24T08:01:08;4.63;;;3.40;;
68140;SDS011;54941;52.220;104.306;2023-07-24T08:03:34;6.45;;;3.50;;
68140;SDS011;54941;52.220;104.306;2023-07-24T08:06:00;6.07;;;3.38;;
68140;SDS011;54941;52.220;104.306;2023-07-24T08:08:27;6.03;;;3.42;;
68140;SDS011;54941;52.220;104.306;2023-07-24T08:10:53;5.50;;;3.40;;
68140;SDS011;54941;52.220;104.306;2023-07-24T08:13:20;5.95;;;3.33;;
68140;SDS011;54941;52.220;104.306;2023-07-24T08:15:46;5.80;;;3.33;;
68140;SDS011;54941;52.220;104.306;2023-07-24T08:18:15;4.15;;;3.33;;
68140;SDS011;54941;52.220;104.306;2023-07-24T08:20:41;4.70;;;3.45;;
68140;SDS011;54941;52.220;104.306;2023-07-24T08:23:07;6.07;;;3.60;;
68140;SDS011;54941;52.220;104.306;2023-07-24T08:25:33;5.25;;;3.55;;
68140;SDS011;54941;52.220;104.306;2023-07-24T08:28:00;4.47;;;3.50;;
68140;SDS011;54941;52.220;104.306;2023-07-24T08:30:26;5.38;;;3.90;;
68140;SDS011;54941;52.220;104.306;2023-07-24T08:32:52;4.47;;;3.63;;
68140;SDS011;54941;52.220;104.306;2023-07-24T08:35:20;5.30;;;3.65;;
68140;SDS011;54941;52.220;104.306;2023-07-24T08:37:46;6.35;;;3.70;;
68140;SDS011;54941;52.220;104.306;2023-07-24T08:40:13;5.63;;;4.80;;
68140;SDS011;54941;52.220;104.306;2023-07-24T08:42:42;7.25;;;3.78;;
68140;SDS011;54941;52.220;104.306;2023-07-24T08:45:11;6.78;;;3.60;;
68140;SDS011;54941;52.220;104.306;2023-07-24T08:47:38;5.47;;;3.72;;
68140;SDS011;54941;52.220;104.306;2023-07-24T08:50:07;6.03;;;3.58;;
68140;SDS011;54941;52.220;104.306;2023-07-24T08:52:36;5.18;;;3.88;;
68140;SDS011;54941;52.220;104.306;2023-07-24T08:55:03;7.20;;;4.13;;
68140;SDS011;54941;52.220;104.306;2023-07-24T08:57:31;5.10;;;3.58;;
68140;SDS011;54941;52.220;104.306;2023-07-24T08:59:57;6.65;;;4.18;;
68140;SDS011;54941;52.220;104.306;2023-07-24T09:02:23;4.72;;;3.25;;
68140;SDS011;54941;52.220;104.306;2023-07-24T09:04:50;5.05;;;3.80;;
68140;SDS011;54941;52.220;104.306;2023-07-24T09:07:16;5.93;;;3.63;;
68140;SDS011;54941;52.220;104.306;2023-07-24T09:09:44;5.32;;;3.63;;
68140;SDS011;54941;52.220;104.306;2023-07-24T09:12:12;5.18;;;3.60;;
68140;SDS011;54941;52.220;104.306;2023-07-24T09:14:41;8.13;;;4.60;;
68140;SDS011;54941;52.220;104.306;2023-07-24T09:17:08;5.82;;;3.70;;
68140;SDS011;54941;52.220;104.306;2023-07-24T09:19:35;5.22;;;3.85;;
68140;SDS011;54941;52.220;104.306;2023-07-24T09:22:09;5.90;;;3.28;;
68140;SDS011;54941;52.220;104.306;2023-07-24T09:24:36;6.18;;;3.78;;
68140;SDS011;54941;52.220;104.306;2023-07-24T09:27:06;6.07;;;3.30;;
68140;SDS011;54941;52.220;104.306;2023-07-24T09:29:33;5.70;;;3.38;;
68140;SDS011;54941;52.220;104.306;2023-07-24T09:32:00;5.43;;;3.35;;
68140;SDS011;54941;52.220;104.306;2023-07-24T09:34:26;5.68;;;3.65;;
68140;SDS011;54941;52.220;104.306;2023-07-24T09:36:53;5.57;;;3.83;;
68140;SDS011;54941;52.220;104.306;2023-07-24T09:39:22;6.13;;;3.40;;
68140;SDS011;54941;52.220;104.306;2023-07-24T09:41:49;5.43;;;3.20;;
68140;SDS011;54941;52.220;104.306;2023-07-24T09:44:17;6.32;;;3.80;;
68140;SDS011;54941;52.220;104.306;2023-07-24T09:46:43;6.20;;;3.35;;
68140;SDS011;54941;52.220;104.306;2023-07-24T09:49:10;4.10;;;3.05;;
68140;SDS011;54941;52.220;104.306;2023-07-24T09:51:36;8.40;;;4.30;;
68140;SDS011;54941;52.220;104.306;2023-07-24T09:54:06;5.00;;;3.35;;
68140;SDS011;54941;52.220;104.306;2023-07-24T09:56:38;5.32;;;3.17;;
68140;SDS011;54941;52.220;104.306;2023-07-24T10:04:02;4.57;;;3.47;;
68140;SDS011;54941;52.220;104.306;2023-07-24T10:06:30;4.93;;;3.08;;
68140;SDS011;54941;52.220;104.306;2023-07-24T10:08:57;3.70;;;2.85;;
68140;SDS011;54941;52.220;104.306;2023-07-24T10:11:25;4.57;;;3.03;;
68140;SDS011;54941;52.220;104.306;2023-07-24T10:13:52;3.92;;;3.05;;
68140;SDS011;54941;52.220;104.306;2023-07-24T10:16:19;3.75;;;3.05;;
68140;SDS011;54941;52.220;104.306;2023-07-24T10:18:47;4.45;;;3.00;;
68140;SDS011;54941;52.220;104.306;2023-07-24T10:21:13;4.25;;;2.88;;
68140;SDS011;54941;52.220;104.306;2023-07-24T10:23:41;3.78;;;3.00;;
68140;SDS011;54941;52.220;104.306;2023-07-24T10:26:09;5.00;;;2.95;;
68140;SDS011;54941;52.220;104.306;2023-07-24T10:28:36;6.75;;;3.20;;
68140;SDS011;54941;52.220;104.306;2023-07-24T10:33:30;4.88;;;3.00;;
68140;SDS011;54941;52.220;104.306;2023-07-24T10:36:04;3.40;;;2.55;;
68140;SDS011;54941;52.220;104.306;2023-07-24T10:38:33;4.05;;;2.75;;
68140;SDS011;54941;52.220;104.306;2023-07-24T10:43:27;5.05;;;2.70;;
68140;SDS011;54941;52.220;104.306;2023-07-24T10:45:53;7.07;;;3.20;;
68140;SDS011;54941;52.220;104.306;2023-07-24T10:48:21;4.07;;;3.00;;
68140;SDS011;54941;52.220;104.306;2023-07-24T10:50:51;4.50;;;3.00;;
68140;SDS011;54941;52.220;104.306;2023-07-24T10:53:19;4.65;;;3.10;;
68140;SDS011;54941;52.220;104.306;2023-07-24T10:55:50;6.82;;;3.95;;
68140;SDS011;54941;52.220;104.306;2023-07-24T10:58:17;4.10;;;2.80;;
68140;SDS011;54941;52.220;104.306;2023-07-24T11:00:43;3.97;;;3.25;;
68140;SDS011;54941;52.220;104.306;2023-07-24T11:03:10;4.43;;;3.10;;
68140;SDS011;54941;52.220;104.306;2023-07-24T11:05:40;3.90;;;2.92;;
68140;SDS011;54941;52.220;104.306;2023-07-24T11:08:10;4.43;;;3.45;;
68140;SDS011;54941;52.220;104.306;2023-07-24T11:10:39;4.45;;;3.40;;
68140;SDS011;54941;52.220;104.306;2023-07-24T11:13:10;4.85;;;3.45;;
68140;SDS011;54941;52.220;104.306;2023-07-24T11:15:37;4.57;;;3.45;;
68140;SDS011;54941;52.220;104.306;2023-07-24T11:18:05;3.75;;;2.67;;
68140;SDS011;54941;52.220;104.306;2023-07-24T11:20:31;4.72;;;2.97;;
68140;SDS011;54941;52.220;104.306;2023-07-24T11:22:58;4.30;;;3.03;;
68140;SDS011;54941;52.220;104.306;2023-07-24T11:25:24;4.57;;;3.05;;
68140;SDS011;54941;52.220;104.306;2023-07-24T11:27:52;5.72;;;2.78;;
68140;SDS011;54941;52.220;104.306;2023-07-24T11:30:19;4.68;;;3.55;;
68140;SDS011;54941;52.220;104.306;2023-07-24T11:32:46;3.80;;;2.85;;
68140;SDS011;54941;52.220;104.306;2023-07-24T11:35:13;3.40;;;3.00;;
68140;SDS011;54941;52.220;104.306;2023-07-24T11:37:40;4.20;;;2.80;;
68140;SDS011;54941;52.220;104.306;2023-07-24T11:40:07;4.03;;;2.88;;
68140;SDS011;54941;52.220;104.306;2023-07-24T11:42:35;4.75;;;3.20;;
68140;SDS011;54941;52.220;104.306;2023-07-24T11:45:05;5.50;;;2.97;;
68140;SDS011;54941;52.220;104.306;2023-07-24T11:47:40;4.20;;;3.03;;
68140;SDS011;54941;52.220;104.306;2023-07-24T11:50:08;6.53;;;4.18;;
68140;SDS011;54941;52.220;104.306;2023-07-24T11:52:38;10.48;;;4.82;;
68140;SDS011;54941;52.220;104.306;2023-07-24T11:55:06;6.65;;;5.05;;
68140;SDS011;54941;52.220;104.306;2023-07-24T11:57:33;10.50;;;6.15;;
68140;SDS011;54941;52.220;104.306;2023-07-24T11:59:59;6.80;;;4.97;;
68140;SDS011;54941;52.220;104.306;2023-07-24T12:02:27;8.52;;;5.63;;
68140;SDS011;54941;52.220;104.306;2023-07-24T12:04:55;7.28;;;5.53;;
68140;SDS011;54941;52.220;104.306;2023-07-24T12:07:22;7.60;;;5.75;;
68140;SDS011;54941;52.220;104.306;2023-07-24T12:09:50;8.95;;;5.78;;
68140;SDS011;54941;52.220;104.306;2023-07-24T12:12:17;7.57;;;5.95;;
68140;SDS011;54941;52.220;104.306;2023-07-24T12:14:44;6.75;;;5.25;;
68140;SDS011;54941;52.220;104.306;2023-07-24T12:17:10;7.50;;;5.18;;
68140;SDS011;54941;52.220;104.306;2023-07-24T12:19:38;8.27;;;5.82;;
68140;SDS011;54941;52.220;104.306;2023-07-24T12:22:04;8.32;;;5.18;;
68140;SDS011;54941;52.220;104.306;2023-07-24T12:24:30;7.00;;;4.72;;
68140;SDS011;54941;52.220;104.306;2023-07-24T12:26:57;6.90;;;4.63;;
68140;SDS011;54941;52.220;104.306;2023-07-24T12:29:23;7.90;;;5.38;;
68140;SDS011;54941;52.220;104.306;2023-07-24T12:31:49;7.22;;;5.35;;
68140;SDS011;54941;52.220;104.306;2023-07-24T12:34:17;23.48;;;15.68;;
68140;SDS011;54941;52.220;104.306;2023-07-24T12:36:48;17.30;;;10.45;;
68140;SDS011;54941;52.220;104.306;2023-07-24T12:39:14;10.13;;;7.30;;
68140;SDS011;54941;52.220;104.306;2023-07-24T12:41:41;10.32;;;7.28;;
68140;SDS011;54941;52.220;104.306;2023-07-24T12:44:09;11.32;;;7.43;;
68140;SDS011;54941;52.220;104.306;2023-07-24T12:46:36;9.60;;;7.05;;
68140;SDS011;54941;52.220;104.306;2023-07-24T12:49:02;7.65;;;5.93;;
68140;SDS011;54941;52.220;104.306;2023-07-24T12:51:28;6.78;;;5.07;;
68140;SDS011;54941;52.220;104.306;2023-07-24T12:53:56;7.30;;;5.13;;
68140;SDS011;54941;52.220;104.306;2023-07-24T12:56:22;6.82;;;5.35;;
68140;SDS011;54941;52.220;104.306;2023-07-24T12:58:49;6.45;;;4.93;;
68140;SDS011;54941;52.220;104.306;2023-07-24T13:01:15;10.23;;;5.85;;
68140;SDS011;54941;52.220;104.306;2023-07-24T13:03:42;8.10;;;7.03;;
68140;SDS011;54941;52.220;104.306;2023-07-24T13:06:08;10.48;;;8.13;;
68140;SDS011;54941;52.220;104.306;2023-07-24T13:08:34;8.88;;;7.53;;
68140;SDS011;54941;52.220;104.306;2023-07-24T13:11:02;12.85;;;9.40;;
68140;SDS011;54941;52.220;104.306;2023-07-24T13:13:28;10.55;;;8.45;;
68140;SDS011;54941;52.220;104.306;2023-07-24T13:15:55;11.52;;;7.80;;
68140;SDS011;54941;52.220;104.306;2023-07-24T13:18:21;11.10;;;6.57;;
68140;SDS011;54941;52.220;104.306;2023-07-24T13:20:47;8.77;;;7.47;;
68140;SDS011;54941;52.220;104.306;2023-07-24T13:23:13;7.93;;;6.07;;
68140;SDS011;54941;52.220;104.306;2023-07-24T13:25:40;10.85;;;8.02;;
68140;SDS011;54941;52.220;104.306;2023-07-24T13:28:09;12.57;;;9.27;;
68140;SDS011;54941;52.220;104.306;2023-07-24T13:30:35;10.07;;;7.70;;
68140;SDS011;54941;52.220;104.306;2023-07-24T13:33:04;11.05;;;7.78;;
68140;SDS011;54941;52.220;104.306;2023-07-24T13:35:30;8.07;;;6.03;;
68140;SDS011;54941;52.220;104.306;2023-07-24T13:37:56;10.43;;;7.18;;
68140;SDS011;54941;52.220;104.306;2023-07-24T13:40:23;16.85;;;12.48;;
68140;SDS011;54941;52.220;104.306;2023-07-24T13:42:49;12.35;;;8.55;;
68140;SDS011;54941;52.220;104.306;2023-07-24T13:45:17;21.77;;;13.13;;
68140;SDS011;54941;52.220;104.306;2023-07-24T13:47:43;16.48;;;11.25;;
68140;SDS011;54941;52.220;104.306;2023-07-24T13:50:10;14.55;;;9.65;;
68140;SDS011;54941;52.220;104.306;2023-07-24T13:52:36;17.75;;;11.02;;
68140;SDS011;54941;52.220;104.306;2023-07-24T13:55:02;11.52;;;9.05;;
68140;SDS011;54941;52.220;104.306;2023-07-24T13:57:30;10.98;;;8.73;;
68140;SDS011;54941;52.220;104.306;2023-07-24T13:59:56;10.25;;;8.23;;
68140;SDS011;54941;52.220;104.306;2023-07-24T14:02:24;16.38;;;9.75;;
68140;SDS011;54941;52.220;104.306;2023-07-24T14:04:50;10.38;;;8.05;;
68140;SDS011;54941;52.220;104.306;2023-07-24T14:07:17;10.80;;;8.65;;
68140;SDS011;54941;52.220;104.306;2023-07-24T14:09:44;13.20;;;10.40;;
68140;SDS011;54941;52.220;104.306;2023-07-24T14:12:10;12.38;;;9.63;;
68140;SDS011;54941;52.220;104.306;2023-07-24T14:14:36;11.00;;;8.05;;
68140;SDS011;54941;52.220;104.306;2023-07-24T14:17:03;14.00;;;9.00;;
68140;SDS011;54941;52.220;104.306;2023-07-24T14:19:31;11.57;;;8.52;;
68140;SDS011;54941;52.220;104.306;2023-07-24T14:21:57;13.43;;;8.95;;
68140;SDS011;54941;52.220;104.306;2023-07-24T14:24:23;12.20;;;9.25;;
68140;SDS011;54941;52.220;104.306;2023-07-24T14:26:50;11.88;;;8.27;;
68140;SDS011;54941;52.220;104.306;2023-07-24T14:29:16;11.60;;;9.38;;